Terminal Aerodrome Forecast
Issued by NWS

Home | Current Version | Previous Version | Text Only | Print | Product List | Glossary On
Versions: 1 2 3 4 5 6 7 8 9 10 11 12 13
000
FTUS44 KLZK 011100 AAA
TAFHOT
TAF AMD
KHOT 011150Z 0112/0212 17007KT 6SM -RA SCT007 OVC015 WS020/21045KT
      TEMPO 0112/0116 4SM RA BR BKN007
     FM011600 26009G16KT P6SM VCSH BKN025 OVC050
     FM012000 30010G18KT P6SM SCT035 BKN060
     FM020300 31008KT P6SM SCT060 SCT250=

USA.gov is the U.S. government's official web portal to all federal, state and local government web resources and services.